Decoded Metar for LFBA (AGEN in FRANCE) (IATA:AGF) | Meteo·Mobile Aviation Weather
aviador You're here:

LFBA Decoded Metar

AGEN in FRANCE
Report Time2018-08-21 16:00:00
UTC Time2018-08-21 16:06:17
Flight Rules vfr VFR
Wind270° at 04 kt
W.Decomp.*RWY 29: 3.8 kt HW 1.4 kt LCW
W.Rank270° ranks 4
Current wind is below 270° avg. (5.9)
Visibility9999 m
Phenomena:N/A
Clouds:N/A
Expected CloudBase > 5,600 ft AGL from Temp-Dew spread
CeilingNone
Temp31°C (ISA +16)
Dew Point17°C (43% RH)
Heat Index31.4°C
QNH1015 hPa
Density Alt2,264 ft
Elevation197 ft
Report Wrong Elevation
Raw Report
METAR LFBA 211600Z AUTO 27004KT 220V290 CAVOK 31/17 Q1015 NOSIG=

Extra information for LFBA:More info

Metar Taf Metar & Taf Last 4 Metars F.Rules Stats Wind Profile Meteogram Temp Stats Airport Information Weather charts Add Link Nearby VenuesMetar ALERT Operation Metar Decoded Social comments